createdAt,value
2023-01-05T00:00:55.694Z,11.10
2023-01-05T00:03:22.779Z,11.20
2023-01-05T00:05:49.661Z,11.20
2023-01-05T00:08:16.568Z,11.20
2023-01-05T00:11:01.890Z,11.10
2023-01-05T00:13:47.423Z,11.10
2023-01-05T00:16:33.655Z,11.10
2023-01-05T00:19:19.097Z,11.10
2023-01-05T00:22:04.728Z,11.10
2023-01-05T00:24:31.918Z,11.00
2023-01-05T00:26:58.726Z,11.10
2023-01-05T00:29:25.543Z,11.00
2023-01-05T00:31:52.579Z,11.00
2023-01-05T00:34:21.346Z,11.10
2023-01-05T00:36:48.315Z,11.00
2023-01-05T00:39:15.146Z,11.00
2023-01-05T00:41:42.045Z,11.00
2023-01-05T00:44:08.860Z,10.90
2023-01-05T00:46:35.714Z,10.90
2023-01-05T00:49:02.539Z,10.90
2023-01-05T00:51:29.391Z,10.90
2023-01-05T00:53:56.387Z,10.90
2023-01-05T00:56:23.178Z,10.90
2023-01-05T00:58:53.152Z,10.90
2023-01-05T01:01:20.171Z,10.90
2023-01-05T01:03:47.229Z,10.90
2023-01-05T01:06:15.601Z,10.90
2023-01-05T01:08:42.539Z,11.00
2023-01-05T01:11:09.993Z,11.00
2023-01-05T01:13:38.915Z,11.00
2023-01-05T01:16:06.993Z,11.00
2023-01-05T01:18:33.852Z,11.00
2023-01-05T01:21:00.729Z,11.00
2023-01-05T01:23:27.811Z,11.00
2023-01-05T01:25:56.443Z,11.00
2023-01-05T01:28:24.009Z,11.00
2023-01-05T01:30:50.916Z,11.00
2023-01-05T01:33:17.796Z,11.00
2023-01-05T01:35:44.732Z,11.00
2023-01-05T01:38:11.555Z,11.00
2023-01-05T01:40:42.993Z,11.00
2023-01-05T01:43:14.548Z,11.00
2023-01-05T01:45:42.817Z,11.00
2023-01-05T01:48:10.772Z,11.00
2023-01-05T01:50:41.605Z,11.00
2023-01-05T01:53:11.834Z,11.00
2023-01-05T01:55:39.398Z,11.00
2023-01-05T01:58:08.232Z,11.00
2023-01-05T02:00:35.204Z,11.00
2023-01-05T02:03:02.614Z,11.00
2023-01-05T02:05:31.102Z,11.00
2023-01-05T02:07:58.285Z,10.90
2023-01-05T02:10:36.328Z,11.00
2023-01-05T02:13:11.631Z,11.00
2023-01-05T02:15:51.458Z,10.90
2023-01-05T02:18:33.439Z,10.90
2023-01-05T02:21:23.782Z,10.90
2023-01-05T02:24:02.663Z,10.90
2023-01-05T02:26:52.120Z,10.80
2023-01-05T02:29:25.325Z,10.70
2023-01-05T02:32:00.635Z,10.80
2023-01-05T02:34:33.304Z,10.70
2023-01-05T02:37:01.627Z,10.70
2023-01-05T02:39:33.168Z,10.60
2023-01-05T02:42:03.680Z,10.40
2023-01-05T02:44:31.455Z,10.40
2023-01-05T02:47:18.608Z,10.40
2023-01-05T02:49:45.572Z,10.40
2023-01-05T02:52:13.497Z,10.40
2023-01-05T02:54:47.017Z,10.40
2023-01-05T02:57:16.456Z,10.40
2023-01-05T02:59:48.435Z,10.40
2023-01-05T03:02:20.981Z,10.40
2023-01-05T03:04:55.517Z,10.40
2023-01-05T03:07:25.817Z,10.40
2023-01-05T03:09:54.155Z,10.50
2023-01-05T03:12:45.767Z,10.60
2023-01-05T03:15:20.975Z,10.60
2023-01-05T03:17:53.639Z,10.60
2023-01-05T03:20:22.608Z,10.70
2023-01-05T03:23:08.512Z,10.70
2023-01-05T03:25:56.544Z,10.70
2023-01-05T03:28:48.275Z,10.80
2023-01-05T03:31:41.834Z,10.80
2023-01-05T03:34:34.461Z,10.90
2023-01-05T03:37:03.722Z,10.80
2023-01-05T03:39:31.137Z,10.80
2023-01-05T03:42:01.558Z,10.90
2023-01-05T03:44:28.885Z,10.80
2023-01-05T03:46:56.227Z,10.90
2023-01-05T03:49:23.129Z,10.90
2023-01-05T03:51:51.174Z,10.90
2023-01-05T03:54:18.706Z,10.90
2023-01-05T03:56:47.620Z,10.90
2023-01-05T03:59:14.836Z,11.00
2023-01-05T04:01:42.937Z,11.00
2023-01-05T04:04:13.206Z,10.90
2023-01-05T04:06:40.272Z,11.00
2023-01-05T04:09:08.952Z,11.00
2023-01-05T04:11:38.765Z,10.90
2023-01-05T04:14:07.691Z,10.80
2023-01-05T04:16:35.661Z,10.80
2023-01-05T04:19:12.002Z,10.80
2023-01-05T04:21:39.096Z,10.80
2023-01-05T04:24:06.232Z,10.80
2023-01-05T04:26:35.628Z,10.80
2023-01-05T04:29:03.167Z,10.90
2023-01-05T04:31:30.365Z,10.90
2023-01-05T04:33:57.829Z,10.90
2023-01-05T04:36:26.352Z,10.90
2023-01-05T04:38:56.007Z,10.80
2023-01-05T04:41:23.266Z,10.80
2023-01-05T04:43:52.394Z,10.80
2023-01-05T04:46:20.370Z,10.80
2023-01-05T04:48:49.512Z,10.80
2023-01-05T04:51:18.795Z,10.80
2023-01-05T04:53:45.819Z,10.80
2023-01-05T04:56:16.338Z,10.90
2023-01-05T04:58:45.016Z,10.80
2023-01-05T05:01:12.928Z,10.80
2023-01-05T05:03:41.499Z,10.80
2023-01-05T05:06:11.382Z,10.90
2023-01-05T05:08:38.366Z,10.80
2023-01-05T05:11:05.697Z,10.90
2023-01-05T05:13:35.875Z,10.90
2023-01-05T05:16:03.166Z,10.90
2023-01-05T05:18:31.252Z,10.80
2023-01-05T05:20:58.591Z,10.80
2023-01-05T05:23:30.489Z,10.70
2023-01-05T05:25:59.107Z,10.80
2023-01-05T05:28:28.454Z,10.80
2023-01-05T05:30:56.534Z,10.80
2023-01-05T05:33:24.318Z,10.80
2023-01-05T05:35:51.320Z,10.80
2023-01-05T05:38:18.166Z,10.80
2023-01-05T05:40:45.016Z,10.70
2023-01-05T05:43:11.915Z,10.70
2023-01-05T05:45:38.745Z,10.70
2023-01-05T05:48:06.400Z,10.70
2023-01-05T05:50:33.498Z,10.60
2023-01-05T05:53:06.239Z,10.60
2023-01-05T05:55:34.521Z,10.60
2023-01-05T05:58:01.588Z,10.60
2023-01-05T06:00:28.493Z,10.70
2023-01-05T06:02:55.492Z,10.70
2023-01-05T06:05:22.448Z,10.70
2023-01-05T06:07:49.276Z,10.70
2023-01-05T06:10:16.230Z,10.60
2023-01-05T06:12:43.262Z,10.70
2023-01-05T06:15:10.634Z,10.80
2023-01-05T06:17:37.451Z,10.80
2023-01-05T06:20:05.354Z,10.80
2023-01-05T06:22:32.227Z,10.80
2023-01-05T06:24:59.095Z,10.70
2023-01-05T06:27:25.938Z,10.80
2023-01-05T06:29:52.790Z,10.80
2023-01-05T06:32:19.617Z,10.80
2023-01-05T06:34:46.507Z,10.90
2023-01-05T06:37:13.395Z,10.90
2023-01-05T06:39:40.180Z,10.90
2023-01-05T06:42:07.100Z,10.80
2023-01-05T06:44:33.918Z,10.90
2023-01-05T06:47:00.751Z,10.90
2023-01-05T06:49:27.644Z,10.80
2023-01-05T06:51:54.979Z,10.80
2023-01-05T06:54:21.876Z,10.80
2023-01-05T06:56:48.681Z,10.80
2023-01-05T06:59:15.613Z,10.60
2023-01-05T07:01:42.479Z,10.50
2023-01-05T07:04:09.392Z,10.60
2023-01-05T07:06:36.361Z,10.60
2023-01-05T07:09:03.449Z,10.70
2023-01-05T07:11:30.359Z,10.80
2023-01-05T07:13:57.260Z,10.80
2023-01-05T07:16:24.306Z,10.80
2023-01-05T07:18:51.219Z,10.70
2023-01-05T07:21:18.114Z,10.50
2023-01-05T07:23:44.944Z,10.60
2023-01-05T07:26:11.943Z,10.60
2023-01-05T07:28:38.783Z,10.60
2023-01-05T07:31:07.717Z,10.60
2023-01-05T07:33:39.676Z,10.50
2023-01-05T07:36:07.464Z,10.50
2023-01-05T07:38:34.354Z,10.70
2023-01-05T07:41:01.636Z,10.70
2023-01-05T07:43:28.654Z,10.60
2023-01-05T07:46:01.617Z,10.70
2023-01-05T07:48:28.560Z,10.70
2023-01-05T07:51:02.341Z,10.80
2023-01-05T07:53:29.983Z,10.80
2023-01-05T07:55:57.887Z,10.80
2023-01-05T07:58:24.840Z,10.80
2023-01-05T08:00:51.802Z,10.80
2023-01-05T08:03:19.135Z,10.80
2023-01-05T08:05:46.283Z,10.80
2023-01-05T08:08:17.720Z,10.90
2023-01-05T08:10:47.583Z,11.00
2023-01-05T08:13:33.130Z,11.10
2023-01-05T08:16:00.343Z,11.00
2023-01-05T08:18:27.833Z,11.00
2023-01-05T08:20:58.260Z,11.00
2023-01-05T08:23:26.825Z,11.00
2023-01-05T08:25:54.826Z,11.10
2023-01-05T08:28:21.884Z,11.10
2023-01-05T08:30:48.733Z,11.10
2023-01-05T08:33:15.681Z,11.20
2023-01-05T08:35:43.527Z,11.20
2023-01-05T08:38:10.984Z,11.10
2023-01-05T08:40:38.204Z,11.10
2023-01-05T08:43:05.933Z,11.00
2023-01-05T08:45:33.234Z,11.10
2023-01-05T08:48:01.435Z,11.10
2023-01-05T08:50:28.417Z,11.10
2023-01-05T08:52:55.191Z,11.10
2023-01-05T08:55:22.070Z,11.10
2023-01-05T08:57:48.939Z,11.20
2023-01-05T09:00:17.419Z,11.10
2023-01-05T09:02:44.627Z,11.10
2023-01-05T09:05:11.626Z,11.10
2023-01-05T09:07:38.538Z,11.20
2023-01-05T09:10:06.683Z,11.30
2023-01-05T09:12:36.518Z,11.20
2023-01-05T09:15:04.201Z,11.20
2023-01-05T09:17:31.404Z,11.30
2023-01-05T09:19:58.358Z,11.40
2023-01-05T09:22:25.336Z,11.40
2023-01-05T09:24:52.218Z,11.50
2023-01-05T09:27:19.083Z,11.50
2023-01-05T09:29:45.995Z,11.50
2023-01-05T09:32:12.993Z,11.60
2023-01-05T09:34:40.022Z,11.60
2023-01-05T09:37:06.873Z,11.70
2023-01-05T09:39:33.722Z,11.70
2023-01-05T09:42:03.126Z,11.70
2023-01-05T09:44:31.175Z,11.70
2023-01-05T09:47:02.492Z,11.70
2023-01-05T09:49:29.967Z,11.60
2023-01-05T09:52:01.551Z,11.60
2023-01-05T09:54:29.824Z,11.60
2023-01-05T09:57:09.149Z,11.80
2023-01-05T09:59:58.756Z,12.10
2023-01-05T10:02:29.378Z,12.10
2023-01-05T10:04:57.243Z,12.10
2023-01-05T10:07:40.871Z,12.00
2023-01-05T10:10:34.100Z,12.20
2023-01-05T10:13:03.508Z,12.30
2023-01-05T10:15:33.256Z,13.10
2023-01-05T10:18:01.136Z,13.10
2023-01-05T10:20:50.873Z,13.00
2023-01-05T10:23:46.848Z,12.90
2023-01-05T10:26:51.085Z,12.70
2023-01-05T10:29:22.760Z,12.50
2023-01-05T10:31:59.835Z,12.70
2023-01-05T10:34:29.864Z,12.80
2023-01-05T10:37:08.533Z,12.60
2023-01-05T10:39:36.400Z,12.60
2023-01-05T10:42:11.396Z,12.70
2023-01-05T10:44:59.371Z,12.90
2023-01-05T10:47:27.550Z,13.30
2023-01-05T10:49:54.544Z,13.80
2023-01-05T10:52:22.651Z,14.50
2023-01-05T10:54:55.852Z,14.60
2023-01-05T10:57:34.257Z,14.60
2023-01-05T11:00:07.098Z,14.90
2023-01-05T11:02:35.769Z,15.60
2023-01-05T11:05:05.543Z,15.30
2023-01-05T11:07:32.821Z,14.70
2023-01-05T11:09:59.697Z,14.30
2023-01-05T11:12:27.239Z,13.70
2023-01-05T11:14:58.981Z,13.70
2023-01-05T11:17:28.151Z,13.50
2023-01-05T11:19:56.175Z,13.70
2023-01-05T11:22:36.218Z,13.30
2023-01-05T11:25:20.489Z,12.80
2023-01-05T11:27:54.808Z,12.50
2023-01-05T11:30:25.580Z,12.30
2023-01-05T11:32:52.460Z,12.40
2023-01-05T11:35:30.389Z,12.80
2023-01-05T11:37:58.102Z,13.00
2023-01-05T11:40:28.625Z,13.70
2023-01-05T11:42:55.716Z,14.70
2023-01-05T11:45:25.034Z,14.80
2023-01-05T11:48:15.052Z,13.60
2023-01-05T11:50:49.182Z,13.00
2023-01-05T11:53:34.106Z,12.40
2023-01-05T11:56:02.142Z,12.10
2023-01-05T11:58:42.000Z,11.80
2023-01-05T12:01:08.898Z,11.70
2023-01-05T12:03:44.668Z,11.80
2023-01-05T12:06:11.483Z,11.90
2023-01-05T12:08:58.010Z,11.80
2023-01-05T12:11:27.827Z,11.70
2023-01-05T12:14:13.749Z,11.80
2023-01-05T12:16:54.024Z,11.80
2023-01-05T12:19:29.822Z,11.80
2023-01-05T12:22:05.683Z,12.00
2023-01-05T12:24:40.781Z,12.00
2023-01-05T12:27:22.710Z,12.00
2023-01-05T12:35:45.659Z,12.00
2023-01-05T12:38:18.576Z,12.00
2023-01-05T12:40:53.627Z,12.20
2023-01-05T12:43:29.330Z,12.30
2023-01-05T12:45:58.988Z,12.40
2023-01-05T12:48:31.296Z,12.70
2023-01-05T12:51:04.164Z,12.50
2023-01-05T12:53:37.123Z,12.70
2023-01-05T12:56:27.354Z,12.60
2023-01-05T12:59:17.639Z,12.50
2023-01-05T13:01:49.301Z,12.40
2023-01-05T13:04:27.445Z,12.30
2023-01-05T13:06:59.169Z,12.30
2023-01-05T13:09:30.212Z,12.40
2023-01-05T13:12:08.507Z,12.40
2023-01-05T13:14:36.758Z,12.30
2023-01-05T13:17:06.274Z,12.30
2023-01-05T13:19:34.396Z,12.40
2023-01-05T13:22:05.973Z,12.40
2023-01-05T13:24:37.843Z,12.40
2023-01-05T13:27:04.793Z,12.20
2023-01-05T13:29:36.655Z,12.20
2023-01-05T13:32:15.675Z,12.20
2023-01-05T13:34:42.488Z,12.20
2023-01-05T13:37:15.579Z,12.10
2023-01-05T13:40:03.377Z,12.20
2023-01-05T13:42:33.122Z,12.10
2023-01-05T13:45:18.753Z,12.10
2023-01-05T13:47:57.337Z,12.00
2023-01-05T13:50:27.099Z,11.70
2023-01-05T13:52:56.754Z,11.50
2023-01-05T13:55:26.655Z,11.40
2023-01-05T13:57:55.596Z,11.30
2023-01-05T14:00:35.974Z,11.20
2023-01-05T14:03:17.892Z,11.10
2023-01-05T14:05:55.099Z,10.90
2023-01-05T14:08:28.001Z,10.90
2023-01-05T14:11:07.155Z,10.90
2023-01-05T14:13:46.136Z,10.80
2023-01-05T14:16:31.704Z,10.80
2023-01-05T14:19:17.151Z,10.90
2023-01-05T14:22:00.339Z,10.90
2023-01-05T14:24:30.344Z,11.00
2023-01-05T14:27:00.245Z,11.00
2023-01-05T14:29:45.485Z,11.00
2023-01-05T14:32:13.764Z,11.10
2023-01-05T14:35:06.866Z,11.10
2023-01-05T14:37:33.697Z,11.10
2023-01-05T14:40:08.680Z,11.10
2023-01-05T14:42:39.658Z,11.10
2023-01-05T14:45:08.814Z,11.10
2023-01-05T14:47:40.156Z,11.10
2023-01-05T14:50:24.439Z,11.10
2023-01-05T14:53:09.482Z,11.10
2023-01-05T14:55:39.161Z,11.20
2023-01-05T14:58:11.731Z,11.20
2023-01-05T15:03:11.483Z,11.10
2023-01-05T15:05:41.734Z,11.20
2023-01-05T15:08:19.750Z,11.20
2023-01-05T15:10:52.609Z,11.20
2023-01-05T15:13:38.140Z,11.20
2023-01-05T15:16:14.066Z,11.20
2023-01-05T15:18:41.007Z,11.20
2023-01-05T15:21:26.722Z,11.10
2023-01-05T15:23:59.596Z,11.10
2023-01-05T15:26:45.079Z,11.00
2023-01-05T15:29:27.586Z,11.10
2023-01-05T15:32:00.914Z,11.00
2023-01-05T15:34:37.757Z,11.00
2023-01-05T15:37:11.521Z,11.00
2023-01-05T15:39:46.670Z,11.00
2023-01-05T15:42:25.886Z,11.00
2023-01-05T15:44:53.636Z,11.00
2023-01-05T15:47:21.997Z,10.90
2023-01-05T15:49:50.256Z,11.00
2023-01-05T15:52:26.397Z,10.90
2023-01-05T15:54:57.170Z,11.00
2023-01-05T15:57:24.024Z,11.00
2023-01-05T15:59:52.033Z,11.00
2023-01-05T16:02:21.752Z,10.90
2023-01-05T16:04:48.617Z,10.90
2023-01-05T16:07:15.717Z,10.80
2023-01-05T16:09:46.157Z,10.90
2023-01-05T16:12:23.369Z,10.90
2023-01-05T16:14:57.782Z,11.00
2023-01-05T16:17:25.925Z,10.90
2023-01-05T16:20:01.547Z,11.00
2023-01-05T16:22:44.127Z,10.90
2023-01-05T16:25:14.951Z,11.00
2023-01-05T16:27:43.226Z,10.90
2023-01-05T16:30:33.275Z,10.90
2023-01-05T16:33:03.280Z,10.90
2023-01-05T16:35:33.339Z,10.90
2023-01-05T16:38:12.926Z,10.90
2023-01-05T16:40:45.799Z,10.90
2023-01-05T16:43:18.647Z,10.80
2023-01-05T16:45:45.588Z,10.70
2023-01-05T16:48:32.625Z,10.70
2023-01-05T16:51:00.523Z,10.60
2023-01-05T16:53:27.412Z,10.60
2023-01-05T16:55:57.139Z,10.50
2023-01-05T16:58:30.035Z,10.40
2023-01-05T17:01:09.040Z,10.40
2023-01-05T17:03:36.015Z,10.30
2023-01-05T17:06:02.816Z,10.40
2023-01-05T17:08:31.993Z,10.30
2023-01-05T17:11:00.556Z,10.20
2023-01-05T17:13:32.310Z,10.20
2023-01-05T17:15:59.167Z,10.30
2023-01-05T17:18:28.666Z,10.40
2023-01-05T17:20:56.549Z,10.40
2023-01-05T17:23:31.135Z,10.30
2023-01-05T17:26:08.655Z,10.20
2023-01-05T17:28:35.567Z,10.20
2023-01-05T17:31:02.609Z,10.20
2023-01-05T17:33:29.479Z,10.20
2023-01-05T17:35:56.497Z,10.10
2023-01-05T17:38:23.369Z,10.10
2023-01-05T17:40:50.231Z,10.00
2023-01-05T17:43:18.543Z,9.90
2023-01-05T17:45:45.734Z,9.90
2023-01-05T17:50:44.609Z,9.90
2023-01-05T17:53:11.400Z,9.90
2023-01-05T17:55:38.277Z,10.00
2023-01-05T17:58:05.229Z,9.90
2023-01-05T18:00:39.720Z,10.00
2023-01-05T18:03:06.670Z,9.90
2023-01-05T18:05:33.516Z,9.90
2023-01-05T18:08:00.382Z,9.80
2023-01-05T18:10:29.168Z,9.80
2023-01-05T18:12:56.565Z,9.80
2023-01-05T18:15:23.504Z,9.80
2023-01-05T18:17:50.348Z,9.80
2023-01-05T18:20:19.799Z,9.80
2023-01-05T18:22:48.372Z,9.80
2023-01-05T18:25:15.422Z,9.70
2023-01-05T18:27:42.349Z,9.70
2023-01-05T18:30:09.877Z,9.70
2023-01-05T18:32:37.336Z,9.80
2023-01-05T18:35:07.408Z,9.60
2023-01-05T18:37:36.909Z,9.50
2023-01-05T18:40:04.187Z,9.50
2023-01-05T18:42:31.061Z,9.50
2023-01-05T18:44:58.815Z,9.60
2023-01-05T18:47:25.769Z,9.40
2023-01-05T18:49:54.847Z,9.40
2023-01-05T18:52:21.745Z,9.40
2023-01-05T18:54:48.645Z,9.40
2023-01-05T18:57:15.492Z,9.60
2023-01-05T18:59:42.536Z,9.80
2023-01-05T19:02:13.182Z,9.80
2023-01-05T19:04:40.014Z,9.80
2023-01-05T19:07:07.007Z,9.90
2023-01-05T19:09:34.109Z,9.80
2023-01-05T19:12:01.141Z,9.70
2023-01-05T19:14:28.149Z,9.70
2023-01-05T19:16:54.998Z,9.60
2023-01-05T19:19:21.898Z,9.60
2023-01-05T19:21:48.986Z,9.50
2023-01-05T19:24:16.879Z,9.50
2023-01-05T19:26:44.313Z,9.50
2023-01-05T19:29:11.568Z,9.60
2023-01-05T19:31:39.111Z,9.60
2023-01-05T19:34:06.312Z,9.50
2023-01-05T19:36:34.916Z,9.40
2023-01-05T19:39:10.041Z,9.30
2023-01-05T19:41:37.784Z,9.30
2023-01-05T19:44:04.941Z,9.30
2023-01-05T19:46:32.284Z,9.30
2023-01-05T19:49:00.477Z,9.30
2023-01-05T19:51:28.855Z,9.20
2023-01-05T19:53:57.423Z,9.20
2023-01-05T19:56:25.294Z,9.30
2023-01-05T19:58:56.791Z,9.10
2023-01-05T20:01:24.534Z,9.10
2023-01-05T20:03:51.640Z,9.10
2023-01-05T20:06:20.199Z,9.00
2023-01-05T20:08:53.726Z,8.90
2023-01-05T20:11:35.707Z,8.90
2023-01-05T20:14:04.141Z,8.90
2023-01-05T20:16:31.745Z,8.90
2023-01-05T20:18:59.759Z,8.90
2023-01-05T20:21:26.809Z,8.90
2023-01-05T20:23:53.638Z,9.00
2023-01-05T20:26:21.534Z,9.00
2023-01-05T20:28:48.577Z,9.10
2023-01-05T20:31:42.007Z,9.10
2023-01-05T20:34:14.483Z,9.10
2023-01-05T20:36:41.685Z,9.10
2023-01-05T20:39:09.842Z,9.20
2023-01-05T20:41:38.304Z,9.20
2023-01-05T20:44:05.609Z,9.20
2023-01-05T20:46:42.853Z,9.00
2023-01-05T20:49:09.910Z,9.00
2023-01-05T20:51:37.321Z,9.00
2023-01-05T20:54:06.081Z,9.00
2023-01-05T20:56:38.407Z,8.90
2023-01-05T20:59:13.599Z,8.90
2023-01-05T21:01:40.485Z,8.90
2023-01-05T21:04:07.621Z,8.90
2023-01-05T21:06:34.894Z,8.80
2023-01-05T21:09:01.892Z,8.80
2023-01-05T21:11:29.698Z,8.70
2023-01-05T21:13:57.117Z,8.60
2023-01-05T21:16:28.970Z,8.70
2023-01-05T21:18:58.107Z,8.70
2023-01-05T21:21:26.853Z,8.80
2023-01-05T21:23:54.205Z,8.60
2023-01-05T21:26:21.652Z,8.60
2023-01-05T21:28:49.950Z,8.50
2023-01-05T21:31:18.504Z,8.50
2023-01-05T21:33:45.830Z,8.60
2023-01-05T21:36:13.913Z,8.70
2023-01-05T21:39:02.066Z,8.70
2023-01-05T21:41:46.512Z,8.80
2023-01-05T21:44:14.076Z,8.80
2023-01-05T21:46:41.877Z,8.80
2023-01-05T21:49:09.348Z,8.80
2023-01-05T21:51:54.651Z,8.80
2023-01-05T21:54:40.776Z,8.90
2023-01-05T21:57:07.692Z,8.90
2023-01-05T21:59:34.898Z,8.90
2023-01-05T22:02:01.822Z,8.90
2023-01-05T22:04:28.679Z,9.00
2023-01-05T22:06:55.536Z,9.00
2023-01-05T22:09:22.372Z,9.00
2023-01-05T22:11:49.202Z,9.10
2023-01-05T22:14:16.175Z,9.10
2023-01-05T22:16:43.362Z,9.00
2023-01-05T22:19:11.137Z,9.10
2023-01-05T22:21:37.995Z,9.00
2023-01-05T22:24:05.410Z,9.00
2023-01-05T22:26:32.297Z,9.00
2023-01-05T22:28:59.173Z,9.10
2023-01-05T22:31:27.633Z,9.10
2023-01-05T22:33:55.414Z,9.10
2023-01-05T22:36:23.011Z,9.00
2023-01-05T22:38:50.936Z,9.00
2023-01-05T22:41:19.247Z,9.10
2023-01-05T22:43:46.327Z,9.10
2023-01-05T22:46:14.806Z,9.10
2023-01-05T22:48:42.888Z,9.10
2023-01-05T22:51:30.051Z,9.10
2023-01-05T22:53:57.534Z,9.20
2023-01-05T22:56:24.856Z,9.30
2023-01-05T22:58:51.792Z,9.30
2023-01-05T23:01:21.386Z,9.20
2023-01-05T23:03:48.920Z,9.10
2023-01-05T23:06:16.268Z,9.10
2023-01-05T23:08:43.614Z,9.10
2023-01-05T23:11:15.227Z,9.10
2023-01-05T23:13:42.500Z,9.10
2023-01-05T23:16:10.049Z,9.00
2023-01-05T23:18:37.844Z,9.00
2023-01-05T23:21:06.110Z,9.00
2023-01-05T23:23:33.252Z,9.00
2023-01-05T23:26:00.148Z,9.00
2023-01-05T23:28:28.215Z,9.00
2023-01-05T23:30:56.017Z,9.00
2023-01-05T23:33:24.084Z,9.00
2023-01-05T23:35:51.841Z,9.00
2023-01-05T23:38:18.691Z,8.80
2023-01-05T23:40:49.702Z,8.70
2023-01-05T23:43:17.855Z,8.80
2023-01-05T23:45:45.076Z,8.70
2023-01-05T23:48:12.297Z,8.60
2023-01-05T23:50:43.559Z,8.50
2023-01-05T23:53:10.782Z,8.40
2023-01-05T23:55:37.972Z,8.40
2023-01-05T23:58:04.949Z,8.50
